Time,TemperatureF,DewpointF,PressureIn,WindDirection,WindDirectionDegrees,WindSpeedMPH,WindSpeedGustMPH,Humidity,HourlyPrecipIn,Conditions,Clouds,dailyrainin,SoftwareType,DateUTC
2013-04-25 00:03:00,37.0,30.0,30.07,South,187,6.0,0.0,77,0.03,,,-99.99,,2013-04-25 04:03:00,
2013-04-25 00:13:00,37.0,30.0,30.07,South,187,6.0,0.0,77,0.03,,,-99.99,,2013-04-25 04:13:00,
2013-04-25 00:23:00,37.0,30.0,30.08,SSW,197,5.0,0.0,77,0.03,,,-99.99,,2013-04-25 04:23:00,
2013-04-25 00:33:00,37.0,31.0,30.07,SSW,198,5.0,0.0,79,0.03,,,-99.99,,2013-04-25 04:33:00,
2013-04-25 00:43:00,37.0,31.0,30.07,SSW,198,5.0,0.0,79,0.03,,,-99.99,,2013-04-25 04:43:00,
2013-04-25 00:52:00,37.0,31.0,30.07,South,181,6.0,0.0,79,0.03,,,-99.99,,2013-04-25 04:52:00,
2013-04-25 01:03:00,37.0,32.0,30.06,SSW,197,6.0,0.0,81,0.03,,,-99.99,,2013-04-25 05:03:00,
2013-04-25 01:12:00,37.0,32.0,30.06,SSW,197,6.0,0.0,81,0.03,,,-99.99,,2013-04-25 05:12:00,
2013-04-25 01:22:00,37.0,32.0,30.07,SSW,194,6.0,0.0,81,0.03,,,-99.99,,2013-04-25 05:22:00,
2013-04-25 01:32:00,37.0,32.0,30.06,SSW,198,5.0,0.0,82,0.03,,,-99.99,,2013-04-25 05:32:00,
2013-04-25 01:42:00,37.0,32.0,30.06,SSW,198,5.0,0.0,82,0.03,,,-99.99,,2013-04-25 05:42:00,
2013-04-25 01:52:00,37.0,33.0,30.06,SW,217,6.0,0.0,84,0.03,,,-99.99,,2013-04-25 05:52:00,
2013-04-25 02:02:00,38.0,34.0,30.05,SSW,204,7.0,0.0,85,0.03,,,-99.99,,2013-04-25 06:02:00,
2013-04-25 02:12:00,38.0,34.0,30.05,SSW,204,7.0,0.0,85,0.03,,,-99.99,,2013-04-25 06:12:00,
2013-04-25 02:22:00,38.0,34.0,30.05,SSW,212,8.0,0.0,86,0.03,,,-99.99,,2013-04-25 06:22:00,
2013-04-25 02:32:00,38.0,34.0,30.05,SSW,193,7.0,0.0,86,0.03,,,-99.99,,2013-04-25 06:32:00,
2013-04-25 02:42:00,38.0,34.0,30.05,SSW,193,7.0,0.0,86,0.03,,,-99.99,,2013-04-25 06:42:00,
2013-04-25 02:52:00,39.0,35.0,30.04,SSW,210,8.0,0.0,87,0.03,,,-99.99,,2013-04-25 06:52:00,
2013-04-25 03:02:00,39.0,35.0,30.04,SSW,201,8.0,0.0,87,0.03,,,-99.99,,2013-04-25 07:02:00,
2013-04-25 03:12:00,39.0,35.0,30.04,SSW,201,8.0,0.0,87,0.03,,,-99.99,,2013-04-25 07:12:00,
2013-04-25 03:22:00,39.0,35.0,30.04,SSW,207,8.0,0.0,87,0.03,,,-99.99,,2013-04-25 07:22:00,
2013-04-25 03:32:00,39.0,36.0,30.03,SSW,203,8.0,0.0,88,0.03,,,-99.99,,2013-04-25 07:32:00,
2013-04-25 03:42:00,39.0,36.0,30.03,SSW,203,8.0,0.0,88,0.03,,,-99.99,,2013-04-25 07:42:00,
2013-04-25 03:52:00,39.0,36.0,30.03,SSW,195,9.0,0.0,88,0.03,,,-99.99,,2013-04-25 07:52:00,
2013-04-25 04:02:00,39.0,36.0,30.03,SSW,194,8.0,0.0,90,0.03,,,-99.99,,2013-04-25 08:02:00,
2013-04-25 04:11:00,39.0,36.0,30.03,SSW,194,8.0,0.0,90,0.03,,,-99.99,,2013-04-25 08:11:00,
2013-04-25 04:22:00,39.0,37.0,30.02,SSW,200,8.0,0.0,91,0.03,,,-99.99,,2013-04-25 08:22:00,
2013-04-25 04:32:00,39.0,37.0,30.02,SSW,197,11.0,0.0,92,0.03,,,-99.99,,2013-04-25 08:32:00,
2013-04-25 04:42:00,39.0,37.0,30.02,SSW,197,11.0,0.0,92,0.03,,,-99.99,,2013-04-25 08:42:00,
2013-04-25 04:52:00,39.0,37.0,30.02,SSW,195,9.0,0.0,92,0.03,,,-99.99,,2013-04-25 08:52:00,
2013-04-25 05:01:00,39.0,37.0,30.01,SSW,195,10.0,0.0,92,0.03,,,-99.99,,2013-04-25 09:01:00,
2013-04-25 05:11:00,39.0,37.0,30.01,SSW,195,10.0,0.0,92,0.03,,,-99.99,,2013-04-25 09:11:00,
2013-04-25 05:21:00,39.0,37.0,30.01,SSW,200,11.0,0.0,92,0.03,,,-99.99,,2013-04-25 09:21:00,
2013-04-25 05:33:00,40.0,38.0,30.01,SW,222,13.0,0.0,91,0.03,,,-99.99,,2013-04-25 09:33:00,
2013-04-25 05:42:00,40.0,38.0,30.01,SW,222,13.0,0.0,91,0.03,,,-99.99,,2013-04-25 09:42:00,
2013-04-25 05:53:00,40.0,38.0,30.00,SSW,197,11.0,0.0,91,0.03,,,-99.99,,2013-04-25 09:53:00,
2013-04-25 06:02:00,40.0,38.0,30.00,SSW,201,10.0,0.0,92,0.03,,,-99.99,,2013-04-25 10:02:00,
2013-04-25 06:12:00,40.0,38.0,30.00,SSW,201,10.0,0.0,92,0.03,,,-99.99,,2013-04-25 10:12:00,
2013-04-25 06:22:00,40.0,38.0,30.00,SW,214,9.0,0.0,92,0.03,,,-99.99,,2013-04-25 10:22:00,
2013-04-25 06:33:00,40.0,38.0,30.01,SW,233,6.0,0.0,92,0.03,,,-99.99,,2013-04-25 10:33:00,
2013-04-25 06:42:00,40.0,38.0,30.01,SW,233,6.0,0.0,92,0.03,,,-99.99,,2013-04-25 10:42:00,
2013-04-25 06:52:00,41.0,39.0,30.00,SW,217,9.0,0.0,91,0.03,,,-99.99,,2013-04-25 10:52:00,
2013-04-25 07:02:00,42.0,39.0,30.01,West,259,11.0,0.0,88,0.03,,,-99.99,,2013-04-25 11:02:00,
2013-04-25 07:12:00,42.0,39.0,30.01,West,259,11.0,0.0,88,0.03,,,-99.99,,2013-04-25 11:12:00,
2013-04-25 07:22:00,40.0,39.0,30.01,WSW,255,9.0,0.0,95,0.03,,,-99.99,,2013-04-25 11:22:00,
2013-04-25 07:32:00,40.0,39.0,30.02,SSW,197,11.0,0.0,97,0.03,,,-99.99,,2013-04-25 11:32:00,
2013-04-25 07:42:00,40.0,39.0,30.02,SSW,197,11.0,0.0,97,0.03,,,-99.99,,2013-04-25 11:42:00,
2013-04-25 07:52:00,39.0,39.0,30.02,SSW,208,17.0,0.0,100,0.03,,,-99.99,,2013-04-25 11:52:00,
2013-04-25 08:01:00,38.0,38.0,30.02,SSW,205,13.0,0.0,100,0.03,,,-99.99,,2013-04-25 12:01:00,
2013-04-25 08:12:00,38.0,38.0,30.02,SSW,205,13.0,0.0,100,0.03,,,-99.99,,2013-04-25 12:12:00,
2013-04-25 08:21:00,37.0,37.0,30.02,South,191,10.0,0.0,100,0.03,,,-99.99,,2013-04-25 12:21:00,
2013-04-25 08:32:00,37.0,37.0,30.02,SSW,208,14.0,0.0,100,0.03,,,-99.99,,2013-04-25 12:32:00,
2013-04-25 08:42:00,37.0,37.0,30.02,SSW,208,14.0,0.0,100,0.03,,,-99.99,,2013-04-25 12:42:00,
2013-04-25 08:51:00,38.0,38.0,30.02,SSW,210,10.0,0.0,100,0.03,,,-99.99,,2013-04-25 12:51:00,
2013-04-25 09:02:00,38.0,38.0,30.02,SSW,212,9.0,0.0,100,0.03,,,-99.99,,2013-04-25 13:02:00,
2013-04-25 09:11:00,38.0,38.0,30.02,SSW,212,9.0,0.0,100,0.03,,,-99.99,,2013-04-25 13:11:00,
2013-04-25 09:21:00,38.0,38.0,30.02,South,180,13.0,0.0,100,0.03,,,-99.99,,2013-04-25 13:21:00,
2013-04-25 09:32:00,39.0,39.0,30.03,SW,222,11.0,0.0,100,0.03,,,-99.99,,2013-04-25 13:32:00,
2013-04-25 09:42:00,39.0,39.0,30.03,SW,222,11.0,0.0,100,0.03,,,-99.99,,2013-04-25 13:42:00,
2013-04-25 09:52:00,39.0,39.0,30.03,WSW,253,8.0,0.0,100,0.03,,,-99.99,,2013-04-25 13:52:00,
2013-04-25 10:02:00,39.0,39.0,30.03,WSW,245,8.0,0.0,100,0.03,,,-99.99,,2013-04-25 14:02:00,
2013-04-25 10:11:00,39.0,39.0,30.03,WSW,245,8.0,0.0,100,0.03,,,-99.99,,2013-04-25 14:11:00,
2013-04-25 10:21:00,39.0,39.0,30.05,WSW,257,7.0,0.0,100,0.03,,,-99.99,,2013-04-25 14:21:00,
2013-04-25 10:32:00,39.0,39.0,30.05,WSW,255,9.0,0.0,100,0.03,,,-99.99,,2013-04-25 14:32:00,
2013-04-25 10:42:00,39.0,39.0,30.05,WSW,255,9.0,0.0,100,0.03,,,-99.99,,2013-04-25 14:42:00,
2013-04-25 10:52:00,40.0,40.0,30.06,West,273,8.0,0.0,100,0.03,,,-99.99,,2013-04-25 14:52:00,
2013-04-25 11:02:00,40.0,40.0,30.06,West,273,8.0,0.0,100,0.03,,,-99.99,,2013-04-25 15:02:00,
2013-04-25 11:11:00,40.0,40.0,30.06,West,273,8.0,0.0,100,0.03,,,-99.99,,2013-04-25 15:11:00,
2013-04-25 11:21:00,40.0,40.0,30.06,West,273,8.0,0.0,100,0.03,,,-99.99,,2013-04-25 15:21:00,
2013-04-25 11:33:00,40.0,40.0,30.08,West,280,9.0,0.0,100,0.03,,,-99.99,,2013-04-25 15:33:00,
2013-04-25 11:42:00,40.0,40.0,30.08,West,280,9.0,0.0,100,0.03,,,-99.99,,2013-04-25 15:42:00,
2013-04-25 11:53:00,41.0,41.0,30.09,WNW,294,10.0,0.0,99,0.03,,,-99.99,,2013-04-25 15:53:00,
2013-04-25 12:02:00,41.0,39.0,30.10,NW,307,12.0,0.0,91,0.03,,,-99.99,,2013-04-25 16:02:00,
2013-04-25 12:13:00,41.0,39.0,30.10,NW,307,12.0,0.0,91,0.03,,,-99.99,,2013-04-25 16:13:00,
2013-04-25 12:24:00,42.0,40.0,30.11,WNW,287,9.0,0.0,91,0.03,,,-99.99,,2013-04-25 16:24:00,
2013-04-25 12:33:00,43.0,38.0,30.11,NW,323,13.0,0.0,81,0.03,,,-99.99,,2013-04-25 16:33:00,
2013-04-25 12:43:00,43.0,38.0,30.11,NW,323,13.0,0.0,81,0.03,,,-99.99,,2013-04-25 16:43:00,
2013-04-25 12:52:00,44.0,38.0,30.11,WNW,288,11.0,0.0,79,0.03,,,-99.99,,2013-04-25 16:52:00,
2013-04-25 13:02:00,43.0,35.0,30.13,WNW,284,13.0,0.0,74,0.03,,,-99.99,,2013-04-25 17:02:00,
2013-04-25 13:11:00,43.0,35.0,30.13,WNW,284,13.0,0.0,74,0.03,,,-99.99,,2013-04-25 17:11:00,
2013-04-25 13:22:00,43.0,36.0,30.13,NW,314,12.0,0.0,76,0.03,,,-99.99,,2013-04-25 17:22:00,
2013-04-25 13:32:00,44.0,35.0,30.14,WNW,294,10.0,0.0,71,0.03,,,-99.99,,2013-04-25 17:32:00,
2013-04-25 13:42:00,44.0,35.0,30.14,WNW,294,10.0,0.0,71,0.03,,,-99.99,,2013-04-25 17:42:00,
2013-04-25 13:53:00,44.0,34.0,30.14,NW,322,18.0,0.0,68,0.03,,,-99.99,,2013-04-25 17:53:00,
2013-04-25 14:02:00,45.0,34.0,30.14,West,276,14.0,0.0,66,0.03,,,-99.99,,2013-04-25 18:02:00,
2013-04-25 14:11:00,45.0,34.0,30.14,West,276,14.0,0.0,66,0.03,,,-99.99,,2013-04-25 18:11:00,
2013-04-25 14:22:00,45.0,34.0,30.15,NW,319,11.0,0.0,64,0.03,,,-99.99,,2013-04-25 18:22:00,
2013-04-25 14:32:00,45.0,34.0,30.16,WNW,283,11.0,0.0,66,0.03,,,-99.99,,2013-04-25 18:32:00,
2013-04-25 14:43:00,45.0,34.0,30.16,WNW,283,11.0,0.0,66,0.03,,,-99.99,,2013-04-25 18:43:00,
2013-04-25 14:53:00,45.0,34.0,30.16,NW,318,15.0,0.0,64,0.03,,,-99.99,,2013-04-25 18:53:00,
2013-04-25 15:02:00,46.0,33.0,30.17,NW,311,18.0,0.0,61,0.03,,,-99.99,,2013-04-25 19:02:00,
2013-04-25 15:12:00,46.0,33.0,30.17,NW,311,18.0,0.0,61,0.03,,,-99.99,,2013-04-25 19:12:00,
2013-04-25 15:21:00,46.0,34.0,30.17,NNW,329,10.0,0.0,62,0.03,,,-99.99,,2013-04-25 19:21:00,
2013-04-25 15:32:00,47.0,33.0,30.18,WNW,291,10.0,0.0,57,0.03,,,-99.99,,2013-04-25 19:32:00,
2013-04-25 15:42:00,47.0,33.0,30.18,WNW,291,10.0,0.0,57,0.03,,,-99.99,,2013-04-25 19:42:00,
2013-04-25 15:52:00,48.0,34.0,30.19,WNW,300,10.0,0.0,57,0.03,,,-99.99,,2013-04-25 19:52:00,
2013-04-25 16:02:00,46.0,33.0,30.19,NW,321,16.0,0.0,61,0.03,,,-99.99,,2013-04-25 20:02:00,
2013-04-25 16:11:00,46.0,33.0,30.19,NW,321,16.0,0.0,61,0.03,,,-99.99,,2013-04-25 20:11:00,
2013-04-25 16:22:00,47.0,33.0,30.19,WNW,293,10.0,0.0,59,0.03,,,-99.99,,2013-04-25 20:22:00,
2013-04-25 16:32:00,48.0,32.0,30.19,WNW,291,14.0,0.0,53,0.03,,,-99.99,,2013-04-25 20:32:00,
2013-04-25 16:42:00,48.0,32.0,30.19,WNW,291,14.0,0.0,53,0.03,,,-99.99,,2013-04-25 20:42:00,
2013-04-25 16:52:00,48.0,32.0,30.20,WNW,291,11.0,0.0,53,0.03,,,-99.99,,2013-04-25 20:52:00,
2013-04-25 17:01:00,48.0,32.0,30.20,WNW,291,11.0,0.0,54,0.03,,,-99.99,,2013-04-25 21:01:00,
2013-04-25 17:11:00,48.0,32.0,30.20,WNW,291,11.0,0.0,54,0.03,,,-99.99,,2013-04-25 21:11:00,
2013-04-25 17:22:00,48.0,32.0,30.20,WNW,291,11.0,0.0,54,0.03,,,-99.99,,2013-04-25 21:22:00,
2013-04-25 17:33:00,48.0,33.0,30.21,West,281,11.0,0.0,56,0.03,,,-99.99,,2013-04-25 21:33:00,
2013-04-25 17:42:00,48.0,33.0,30.21,West,281,11.0,0.0,56,0.03,,,-99.99,,2013-04-25 21:42:00,
2013-04-25 17:53:00,48.0,31.0,30.22,West,278,10.0,0.0,52,0.03,,,-99.99,,2013-04-25 21:53:00,
2013-04-25 18:03:00,49.0,31.0,30.22,WSW,238,7.0,0.0,50,0.03,,,-99.99,,2013-04-25 22:03:00,
2013-04-25 18:12:00,49.0,31.0,30.22,WSW,238,7.0,0.0,50,0.03,,,-99.99,,2013-04-25 22:12:00,
2013-04-25 18:22:00,49.0,31.0,30.22,WSW,238,7.0,0.0,50,0.03,,,-99.99,,2013-04-25 22:22:00,
2013-04-25 18:33:00,47.0,31.0,30.22,WNW,300,8.0,0.0,54,0.03,,,-99.99,,2013-04-25 22:33:00,
2013-04-25 18:42:00,47.0,31.0,30.22,WNW,300,8.0,0.0,54,0.03,,,-99.99,,2013-04-25 22:42:00,
2013-04-25 18:53:00,48.0,30.0,30.23,NW,315,12.0,0.0,50,0.03,,,-99.99,,2013-04-25 22:53:00,
2013-04-25 19:02:00,48.0,31.0,30.24,NW,316,8.0,0.0,51,0.03,,,-99.99,,2013-04-25 23:02:00,
2013-04-25 19:12:00,48.0,31.0,30.24,NW,316,8.0,0.0,51,0.03,,,-99.99,,2013-04-25 23:12:00,
2013-04-25 19:22:00,48.0,29.0,30.23,NW,322,8.0,0.0,48,0.03,,,-99.99,,2013-04-25 23:22:00,
2013-04-25 19:32:00,48.0,30.0,30.24,WNW,302,7.0,0.0,49,0.03,,,-99.99,,2013-04-25 23:32:00,
2013-04-25 19:42:00,48.0,30.0,30.24,WNW,302,7.0,0.0,49,0.03,,,-99.99,,2013-04-25 23:42:00,
2013-04-25 19:52:00,48.0,31.0,30.24,West,273,8.0,0.0,51,0.03,,,-99.99,,2013-04-25 23:52:00,
2013-04-25 20:01:00,47.0,32.0,30.25,WSW,239,5.0,0.0,55,0.03,,,-99.99,,2013-04-26 00:01:00,
2013-04-25 20:11:00,47.0,32.0,30.25,WSW,239,5.0,0.0,55,0.03,,,-99.99,,2013-04-26 00:11:00,
2013-04-25 20:21:00,46.0,32.0,30.25,WSW,240,5.0,0.0,58,0.03,,,-99.99,,2013-04-26 00:21:00,
2013-04-25 20:32:00,46.0,33.0,30.25,WSW,248,3.0,0.0,61,0.03,,,-99.99,,2013-04-26 00:32:00,
2013-04-25 20:42:00,46.0,33.0,30.25,WSW,248,3.0,0.0,61,0.03,,,-99.99,,2013-04-26 00:42:00,
2013-04-25 20:52:00,45.0,34.0,30.26,SSW,212,6.0,0.0,66,0.03,,,-99.99,,2013-04-26 00:52:00,
2013-04-25 21:01:00,44.0,34.0,30.27,SW,222,5.0,0.0,69,0.03,,,-99.99,,2013-04-26 01:01:00,
2013-04-25 21:11:00,44.0,34.0,30.27,SW,222,5.0,0.0,69,0.03,,,-99.99,,2013-04-26 01:11:00,
2013-04-25 21:21:00,43.0,34.0,30.27,SSW,201,0.0,0.0,71,0.03,,,-99.99,,2013-04-26 01:21:00,
2013-04-25 21:32:00,42.0,34.0,30.28,SSW,201,0.0,0.0,73,0.03,,,-99.99,,2013-04-26 01:32:00,
2013-04-25 21:42:00,42.0,34.0,30.28,SSW,201,0.0,0.0,73,0.03,,,-99.99,,2013-04-26 01:42:00,
2013-04-25 21:52:00,42.0,34.0,30.28,SSW,201,0.0,0.0,74,0.03,,,-99.99,,2013-04-26 01:52:00,
2013-04-25 22:02:00,42.0,35.0,30.29,SSW,201,0.0,0.0,77,0.03,,,-99.99,,2013-04-26 02:02:00,
2013-04-25 22:12:00,42.0,35.0,30.29,SSW,201,0.0,0.0,77,0.03,,,-99.99,,2013-04-26 02:12:00,
2013-04-25 22:21:00,41.0,35.0,30.29,SSW,201,0.0,0.0,79,0.03,,,-99.99,,2013-04-26 02:21:00,
2013-04-25 22:32:00,41.0,35.0,30.29,SSW,201,0.0,0.0,79,0.03,,,-99.99,,2013-04-26 02:32:00,
2013-04-25 22:42:00,41.0,35.0,30.29,SSW,201,0.0,0.0,79,0.03,,,-99.99,,2013-04-26 02:42:00,
2013-04-25 22:52:00,41.0,35.0,30.29,SSW,201,0.0,0.0,79,0.03,,,-99.99,,2013-04-26 02:52:00,
2013-04-25 23:01:00,40.0,36.0,30.30,SSW,201,0.0,0.0,84,0.03,,,-99.99,,2013-04-26 03:01:00,
2013-04-25 23:11:00,40.0,36.0,30.30,SSW,201,0.0,0.0,84,0.03,,,-99.99,,2013-04-26 03:11:00,
2013-04-25 23:22:00,39.0,35.0,30.31,SSW,201,0.0,0.0,87,0.03,,,-99.99,,2013-04-26 03:22:00,
2013-04-25 23:33:00,39.0,36.0,30.31,SSW,201,0.0,0.0,88,0.03,,,-99.99,,2013-04-26 03:33:00,
2013-04-25 23:43:00,39.0,36.0,30.31,SSW,201,0.0,0.0,88,0.03,,,-99.99,,2013-04-26 03:43:00,
2013-04-25 23:53:00,38.0,36.0,30.31,SSW,201,0.0,0.0,91,0.03,,,-99.99,,2013-04-26 03:53:00,